sensor_id;sensor_type;location;lat;lon;timestamp;temperature;humidity
9305;DHT22;4690;52.422;13.486;2023-04-15T00:05:29;9.30;99.90
9305;DHT22;4690;52.422;13.486;2023-04-15T00:07:56;9.30;99.90
9305;DHT22;4690;52.422;13.486;2023-04-15T00:10:23;9.30;99.90
9305;DHT22;4690;52.422;13.486;2023-04-15T00:12:50;9.30;99.90
9305;DHT22;4690;52.422;13.486;2023-04-15T00:15:16;9.30;99.90
9305;DHT22;4690;52.422;13.486;2023-04-15T00:17:42;9.30;99.90
9305;DHT22;4690;52.422;13.486;2023-04-15T00:20:09;9.30;99.90
9305;DHT22;4690;52.422;13.486;2023-04-15T00:22:35;9.30;99.90
9305;DHT22;4690;52.422;13.486;2023-04-15T00:25:01;9.30;99.90
9305;DHT22;4690;52.422;13.486;2023-04-15T00:27:27;9.30;99.90
9305;DHT22;4690;52.422;13.486;2023-04-15T00:29:54;9.30;99.90
9305;DHT22;4690;52.422;13.486;2023-04-15T00:32:20;9.30;99.90
9305;DHT22;4690;52.422;13.486;2023-04-15T00:34:46;9.30;99.90
9305;DHT22;4690;52.422;13.486;2023-04-15T00:37:12;9.30;99.90
9305;DHT22;4690;52.422;13.486;2023-04-15T00:39:38;9.30;99.90
9305;DHT22;4690;52.422;13.486;2023-04-15T00:42:04;9.30;99.90
9305;DHT22;4690;52.422;13.486;2023-04-15T00:44:30;9.30;99.90
9305;DHT22;4690;52.422;13.486;2023-04-15T00:46:59;9.30;99.90
9305;DHT22;4690;52.422;13.486;2023-04-15T00:49:25;9.30;99.90
9305;DHT22;4690;52.422;13.486;2023-04-15T00:51:53;9.30;99.90
9305;DHT22;4690;52.422;13.486;2023-04-15T00:54:19;9.30;99.90
9305;DHT22;4690;52.422;13.486;2023-04-15T00:56:45;9.20;99.90
9305;DHT22;4690;52.422;13.486;2023-04-15T00:59:11;9.30;99.90
9305;DHT22;4690;52.422;13.486;2023-04-15T01:01:38;9.30;99.90
9305;DHT22;4690;52.422;13.486;2023-04-15T01:04:05;9.30;99.90
9305;DHT22;4690;52.422;13.486;2023-04-15T01:06:31;9.30;99.90
9305;DHT22;4690;52.422;13.486;2023-04-15T01:08:58;9.30;99.90
9305;DHT22;4690;52.422;13.486;2023-04-15T01:11:25;9.30;99.90
9305;DHT22;4690;52.422;13.486;2023-04-15T01:13:52;9.30;99.90
9305;DHT22;4690;52.422;13.486;2023-04-15T01:16:21;9.30;99.90
9305;DHT22;4690;52.422;13.486;2023-04-15T01:18:47;9.30;99.90
9305;DHT22;4690;52.422;13.486;2023-04-15T01:21:13;9.30;99.90
9305;DHT22;4690;52.422;13.486;2023-04-15T01:23:39;9.30;99.90
9305;DHT22;4690;52.422;13.486;2023-04-15T01:26:06;9.30;99.90
9305;DHT22;4690;52.422;13.486;2023-04-15T01:28:34;9.30;99.90
9305;DHT22;4690;52.422;13.486;2023-04-15T01:31:11;9.30;99.90
9305;DHT22;4690;52.422;13.486;2023-04-15T01:33:41;9.30;99.90
9305;DHT22;4690;52.422;13.486;2023-04-15T01:36:08;9.30;99.90
9305;DHT22;4690;52.422;13.486;2023-04-15T01:38:36;9.30;99.90
9305;DHT22;4690;52.422;13.486;2023-04-15T01:41:02;9.40;99.90
9305;DHT22;4690;52.422;13.486;2023-04-15T01:43:33;9.30;99.90
9305;DHT22;4690;52.422;13.486;2023-04-15T01:46:00;9.30;99.90
9305;DHT22;4690;52.422;13.486;2023-04-15T01:48:26;9.30;99.90
9305;DHT22;4690;52.422;13.486;2023-04-15T01:50:53;9.30;99.90
9305;DHT22;4690;52.422;13.486;2023-04-15T01:53:21;9.30;99.90
9305;DHT22;4690;52.422;13.486;2023-04-15T01:55:47;9.40;99.90
9305;DHT22;4690;52.422;13.486;2023-04-15T01:58:13;9.30;99.90
9305;DHT22;4690;52.422;13.486;2023-04-15T02:00:39;9.30;99.90
9305;DHT22;4690;52.422;13.486;2023-04-15T02:03:06;9.30;99.90
9305;DHT22;4690;52.422;13.486;2023-04-15T02:05:32;9.40;99.90
9305;DHT22;4690;52.422;13.486;2023-04-15T02:07:58;9.40;99.90
9305;DHT22;4690;52.422;13.486;2023-04-15T02:10:24;9.30;99.90
9305;DHT22;4690;52.422;13.486;2023-04-15T02:12:50;9.30;99.90
9305;DHT22;4690;52.422;13.486;2023-04-15T02:15:16;9.30;99.90
9305;DHT22;4690;52.422;13.486;2023-04-15T02:17:41;9.30;99.90
9305;DHT22;4690;52.422;13.486;2023-04-15T02:20:10;9.20;99.90
9305;DHT22;4690;52.422;13.486;2023-04-15T02:22:36;9.20;99.90
9305;DHT22;4690;52.422;13.486;2023-04-15T02:25:02;9.30;99.90
9305;DHT22;4690;52.422;13.486;2023-04-15T02:27:28;9.30;99.90
9305;DHT22;4690;52.422;13.486;2023-04-15T02:29:54;9.30;99.90
9305;DHT22;4690;52.422;13.486;2023-04-15T02:32:20;9.30;99.90
9305;DHT22;4690;52.422;13.486;2023-04-15T02:34:48;9.20;99.90
9305;DHT22;4690;52.422;13.486;2023-04-15T02:37:14;9.30;99.90
9305;DHT22;4690;52.422;13.486;2023-04-15T02:39:40;9.30;99.90
9305;DHT22;4690;52.422;13.486;2023-04-15T02:42:06;9.30;99.90
9305;DHT22;4690;52.422;13.486;2023-04-15T02:44:32;9.30;99.90
9305;DHT22;4690;52.422;13.486;2023-04-15T02:46:59;9.30;99.90
9305;DHT22;4690;52.422;13.486;2023-04-15T02:49:25;9.30;99.90
9305;DHT22;4690;52.422;13.486;2023-04-15T02:51:54;9.30;99.90
9305;DHT22;4690;52.422;13.486;2023-04-15T02:54:20;9.30;99.90
9305;DHT22;4690;52.422;13.486;2023-04-15T02:56:50;9.40;99.90
9305;DHT22;4690;52.422;13.486;2023-04-15T02:59:19;9.30;99.90
9305;DHT22;4690;52.422;13.486;2023-04-15T03:01:45;9.40;99.90
9305;DHT22;4690;52.422;13.486;2023-04-15T03:04:11;9.40;99.90
9305;DHT22;4690;52.422;13.486;2023-04-15T03:06:38;9.40;99.90
9305;DHT22;4690;52.422;13.486;2023-04-15T03:09:04;9.40;99.90
9305;DHT22;4690;52.422;13.486;2023-04-15T03:11:30;9.40;99.90
9305;DHT22;4690;52.422;13.486;2023-04-15T03:13:57;9.40;99.90
9305;DHT22;4690;52.422;13.486;2023-04-15T03:16:23;9.40;99.90
9305;DHT22;4690;52.422;13.486;2023-04-15T03:18:50;9.40;99.90
9305;DHT22;4690;52.422;13.486;2023-04-15T03:21:16;9.40;99.90
9305;DHT22;4690;52.422;13.486;2023-04-15T03:23:41;9.40;99.90
9305;DHT22;4690;52.422;13.486;2023-04-15T03:26:07;9.50;99.90
9305;DHT22;4690;52.422;13.486;2023-04-15T03:28:33;9.50;99.90
9305;DHT22;4690;52.422;13.486;2023-04-15T03:30:59;9.50;99.90
9305;DHT22;4690;52.422;13.486;2023-04-15T03:33:25;9.50;99.90
9305;DHT22;4690;52.422;13.486;2023-04-15T03:35:51;9.60;99.90
9305;DHT22;4690;52.422;13.486;2023-04-15T03:38:17;9.50;99.90
9305;DHT22;4690;52.422;13.486;2023-04-15T03:40:45;9.50;99.90
9305;DHT22;4690;52.422;13.486;2023-04-15T03:43:11;9.60;99.90
9305;DHT22;4690;52.422;13.486;2023-04-15T03:45:37;9.60;99.90
9305;DHT22;4690;52.422;13.486;2023-04-15T03:48:03;9.60;99.90
9305;DHT22;4690;52.422;13.486;2023-04-15T03:50:29;9.60;99.90
9305;DHT22;4690;52.422;13.486;2023-04-15T03:52:54;9.60;99.90
9305;DHT22;4690;52.422;13.486;2023-04-15T03:55:20;9.60;99.90
9305;DHT22;4690;52.422;13.486;2023-04-15T03:57:46;9.60;99.90
9305;DHT22;4690;52.422;13.486;2023-04-15T04:00:12;9.60;99.90
9305;DHT22;4690;52.422;13.486;2023-04-15T04:02:38;9.60;99.90
9305;DHT22;4690;52.422;13.486;2023-04-15T04:05:04;9.60;99.90
9305;DHT22;4690;52.422;13.486;2023-04-15T04:07:30;9.70;99.90
9305;DHT22;4690;52.422;13.486;2023-04-15T04:09:56;9.60;99.90
9305;DHT22;4690;52.422;13.486;2023-04-15T04:12:22;9.60;99.90
9305;DHT22;4690;52.422;13.486;2023-04-15T04:14:48;9.70;99.90
9305;DHT22;4690;52.422;13.486;2023-04-15T04:17:14;9.70;99.90
9305;DHT22;4690;52.422;13.486;2023-04-15T04:19:40;9.70;99.90
9305;DHT22;4690;52.422;13.486;2023-04-15T04:22:05;9.70;99.90
9305;DHT22;4690;52.422;13.486;2023-04-15T04:24:31;9.70;99.90
9305;DHT22;4690;52.422;13.486;2023-04-15T04:26:57;9.70;99.90
9305;DHT22;4690;52.422;13.486;2023-04-15T04:29:23;9.70;99.90
9305;DHT22;4690;52.422;13.486;2023-04-15T04:31:48;9.70;99.90
9305;DHT22;4690;52.422;13.486;2023-04-15T04:34:15;9.70;99.90
9305;DHT22;4690;52.422;13.486;2023-04-15T04:36:40;9.80;99.90
9305;DHT22;4690;52.422;13.486;2023-04-15T04:39:06;9.80;99.90
9305;DHT22;4690;52.422;13.486;2023-04-15T04:41:32;9.80;99.90
9305;DHT22;4690;52.422;13.486;2023-04-15T04:43:58;9.80;99.90
9305;DHT22;4690;52.422;13.486;2023-04-15T04:46:24;9.80;99.90
9305;DHT22;4690;52.422;13.486;2023-04-15T04:48:50;9.80;99.90
9305;DHT22;4690;52.422;13.486;2023-04-15T04:51:15;9.80;99.90
9305;DHT22;4690;52.422;13.486;2023-04-15T04:53:43;9.80;99.90
9305;DHT22;4690;52.422;13.486;2023-04-15T04:56:08;9.80;99.90
9305;DHT22;4690;52.422;13.486;2023-04-15T04:58:34;9.90;99.90
9305;DHT22;4690;52.422;13.486;2023-04-15T05:01:00;9.80;99.90
9305;DHT22;4690;52.422;13.486;2023-04-15T05:03:27;9.80;99.90
9305;DHT22;4690;52.422;13.486;2023-04-15T05:05:53;9.90;99.90
9305;DHT22;4690;52.422;13.486;2023-04-15T05:08:19;9.90;99.90
9305;DHT22;4690;52.422;13.486;2023-04-15T05:10:45;9.90;99.90
9305;DHT22;4690;52.422;13.486;2023-04-15T05:13:11;9.90;99.90
9305;DHT22;4690;52.422;13.486;2023-04-15T05:15:37;9.90;99.90
9305;DHT22;4690;52.422;13.486;2023-04-15T05:18:05;9.90;99.90
9305;DHT22;4690;52.422;13.486;2023-04-15T05:20:31;9.90;99.90
9305;DHT22;4690;52.422;13.486;2023-04-15T05:22:57;9.90;99.90
9305;DHT22;4690;52.422;13.486;2023-04-15T05:25:22;9.90;99.90
9305;DHT22;4690;52.422;13.486;2023-04-15T05:27:48;9.90;99.90
9305;DHT22;4690;52.422;13.486;2023-04-15T05:30:14;10.00;99.90
9305;DHT22;4690;52.422;13.486;2023-04-15T05:32:40;10.00;99.90
9305;DHT22;4690;52.422;13.486;2023-04-15T05:35:06;10.00;99.90
9305;DHT22;4690;52.422;13.486;2023-04-15T05:37:32;10.00;99.90
9305;DHT22;4690;52.422;13.486;2023-04-15T05:39:58;10.10;99.90
9305;DHT22;4690;52.422;13.486;2023-04-15T05:42:24;10.10;99.90
9305;DHT22;4690;52.422;13.486;2023-04-15T05:44:50;10.10;99.90
9305;DHT22;4690;52.422;13.486;2023-04-15T05:47:16;10.20;99.90
9305;DHT22;4690;52.422;13.486;2023-04-15T05:49:42;10.20;99.90
9305;DHT22;4690;52.422;13.486;2023-04-15T05:52:07;10.20;99.90
9305;DHT22;4690;52.422;13.486;2023-04-15T05:54:33;10.20;99.90
9305;DHT22;4690;52.422;13.486;2023-04-15T05:56:59;10.20;99.90
9305;DHT22;4690;52.422;13.486;2023-04-15T05:59:25;10.20;99.90
9305;DHT22;4690;52.422;13.486;2023-04-15T06:01:51;10.30;99.90
9305;DHT22;4690;52.422;13.486;2023-04-15T06:04:17;10.30;99.90
9305;DHT22;4690;52.422;13.486;2023-04-15T06:06:43;10.20;99.90
9305;DHT22;4690;52.422;13.486;2023-04-15T06:09:09;10.30;99.90
9305;DHT22;4690;52.422;13.486;2023-04-15T06:11:34;10.20;99.90
9305;DHT22;4690;52.422;13.486;2023-04-15T06:14:02;10.30;99.90
9305;DHT22;4690;52.422;13.486;2023-04-15T06:16:27;10.30;99.90
9305;DHT22;4690;52.422;13.486;2023-04-15T06:18:53;10.30;99.90
9305;DHT22;4690;52.422;13.486;2023-04-15T06:21:19;10.30;99.90
9305;DHT22;4690;52.422;13.486;2023-04-15T06:23:45;10.40;99.90
9305;DHT22;4690;52.422;13.486;2023-04-15T06:26:11;10.40;99.90
9305;DHT22;4690;52.422;13.486;2023-04-15T06:28:36;10.40;99.90
9305;DHT22;4690;52.422;13.486;2023-04-15T06:31:02;10.40;99.90
9305;DHT22;4690;52.422;13.486;2023-04-15T06:33:28;10.40;99.90
9305;DHT22;4690;52.422;13.486;2023-04-15T06:35:54;10.40;99.90
9305;DHT22;4690;52.422;13.486;2023-04-15T06:38:19;10.60;99.90
9305;DHT22;4690;52.422;13.486;2023-04-15T06:40:45;10.60;99.90
9305;DHT22;4690;52.422;13.486;2023-04-15T06:43:11;10.70;99.90
9305;DHT22;4690;52.422;13.486;2023-04-15T06:45:37;10.70;99.90
9305;DHT22;4690;52.422;13.486;2023-04-15T06:48:03;10.60;99.90
9305;DHT22;4690;52.422;13.486;2023-04-15T06:50:29;10.50;99.90
9305;DHT22;4690;52.422;13.486;2023-04-15T06:52:55;10.60;99.90
9305;DHT22;4690;52.422;13.486;2023-04-15T06:55:21;10.60;99.90
9305;DHT22;4690;52.422;13.486;2023-04-15T06:57:47;10.60;99.90
9305;DHT22;4690;52.422;13.486;2023-04-15T07:00:13;10.70;99.90
9305;DHT22;4690;52.422;13.486;2023-04-15T07:02:39;10.80;99.90
9305;DHT22;4690;52.422;13.486;2023-04-15T07:05:05;10.70;99.90
9305;DHT22;4690;52.422;13.486;2023-04-15T07:07:32;10.70;99.90
9305;DHT22;4690;52.422;13.486;2023-04-15T07:09:57;10.60;99.90
9305;DHT22;4690;52.422;13.486;2023-04-15T07:12:23;10.60;99.90
9305;DHT22;4690;52.422;13.486;2023-04-15T07:14:50;10.60;99.90
9305;DHT22;4690;52.422;13.486;2023-04-15T07:17:16;10.60;99.90
9305;DHT22;4690;52.422;13.486;2023-04-15T07:19:42;10.60;99.90
9305;DHT22;4690;52.422;13.486;2023-04-15T07:22:07;10.50;99.90
9305;DHT22;4690;52.422;13.486;2023-04-15T07:24:33;10.50;99.90
9305;DHT22;4690;52.422;13.486;2023-04-15T07:26:59;10.50;99.90
9305;DHT22;4690;52.422;13.486;2023-04-15T07:29:26;10.50;99.90
9305;DHT22;4690;52.422;13.486;2023-04-15T07:31:51;10.40;99.90
9305;DHT22;4690;52.422;13.486;2023-04-15T07:34:18;10.50;99.90
9305;DHT22;4690;52.422;13.486;2023-04-15T07:36:45;10.50;99.90
9305;DHT22;4690;52.422;13.486;2023-04-15T07:39:15;10.40;99.90
9305;DHT22;4690;52.422;13.486;2023-04-15T07:41:40;10.40;99.90
9305;DHT22;4690;52.422;13.486;2023-04-15T07:44:06;10.40;99.90
9305;DHT22;4690;52.422;13.486;2023-04-15T07:46:32;10.40;99.90
9305;DHT22;4690;52.422;13.486;2023-04-15T07:48:58;10.30;99.90
9305;DHT22;4690;52.422;13.486;2023-04-15T07:51:24;10.40;99.90
9305;DHT22;4690;52.422;13.486;2023-04-15T07:53:50;10.30;99.90
9305;DHT22;4690;52.422;13.486;2023-04-15T07:56:16;10.30;99.90
9305;DHT22;4690;52.422;13.486;2023-04-15T07:58:42;10.30;99.90
9305;DHT22;4690;52.422;13.486;2023-04-15T08:01:08;10.30;99.90
9305;DHT22;4690;52.422;13.486;2023-04-15T08:03:34;10.30;99.90
9305;DHT22;4690;52.422;13.486;2023-04-15T08:05:59;10.30;99.90
9305;DHT22;4690;52.422;13.486;2023-04-15T08:08:25;10.30;99.90
9305;DHT22;4690;52.422;13.486;2023-04-15T08:10:51;10.40;99.90
9305;DHT22;4690;52.422;13.486;2023-04-15T08:13:18;10.40;99.90
9305;DHT22;4690;52.422;13.486;2023-04-15T08:15:43;10.40;99.90
9305;DHT22;4690;52.422;13.486;2023-04-15T08:18:09;10.40;99.90
9305;DHT22;4690;52.422;13.486;2023-04-15T08:20:35;10.40;99.90
9305;DHT22;4690;52.422;13.486;2023-04-15T08:23:02;10.40;99.90
9305;DHT22;4690;52.422;13.486;2023-04-15T08:25:29;10.40;99.90
9305;DHT22;4690;52.422;13.486;2023-04-15T08:27:55;10.40;99.90
9305;DHT22;4690;52.422;13.486;2023-04-15T08:30:22;10.40;99.90
9305;DHT22;4690;52.422;13.486;2023-04-15T08:32:49;10.40;99.90
9305;DHT22;4690;52.422;13.486;2023-04-15T08:35:15;10.50;99.90
9305;DHT22;4690;52.422;13.486;2023-04-15T08:37:41;10.40;99.90
9305;DHT22;4690;52.422;13.486;2023-04-15T08:40:07;10.40;99.90
9305;DHT22;4690;52.422;13.486;2023-04-15T08:42:40;10.40;99.90
9305;DHT22;4690;52.422;13.486;2023-04-15T08:45:10;10.40;99.90
9305;DHT22;4690;52.422;13.486;2023-04-15T08:47:37;10.40;99.90
9305;DHT22;4690;52.422;13.486;2023-04-15T08:50:04;10.40;99.90
9305;DHT22;4690;52.422;13.486;2023-04-15T08:52:34;10.50;99.90
9305;DHT22;4690;52.422;13.486;2023-04-15T08:55:01;10.50;99.90
9305;DHT22;4690;52.422;13.486;2023-04-15T08:57:28;10.50;99.90
9305;DHT22;4690;52.422;13.486;2023-04-15T08:59:57;10.60;99.90
9305;DHT22;4690;52.422;13.486;2023-04-15T09:02:24;10.50;99.90
9305;DHT22;4690;52.422;13.486;2023-04-15T09:04:52;10.50;99.90
9305;DHT22;4690;52.422;13.486;2023-04-15T09:07:18;10.60;99.90
9305;DHT22;4690;52.422;13.486;2023-04-15T09:09:43;10.60;99.90
9305;DHT22;4690;52.422;13.486;2023-04-15T09:12:10;10.60;99.90
9305;DHT22;4690;52.422;13.486;2023-04-15T09:14:39;10.60;99.90
9305;DHT22;4690;52.422;13.486;2023-04-15T09:17:09;10.60;99.90
9305;DHT22;4690;52.422;13.486;2023-04-15T09:19:36;10.60;99.90
9305;DHT22;4690;52.422;13.486;2023-04-15T09:22:02;10.70;99.90
9305;DHT22;4690;52.422;13.486;2023-04-15T09:24:38;10.60;99.90
9305;DHT22;4690;52.422;13.486;2023-04-15T09:27:06;10.70;99.90
9305;DHT22;4690;52.422;13.486;2023-04-15T09:29:32;10.70;99.90
9305;DHT22;4690;52.422;13.486;2023-04-15T09:32:14;10.80;99.90
9305;DHT22;4690;52.422;13.486;2023-04-15T09:34:41;10.80;99.90
9305;DHT22;4690;52.422;13.486;2023-04-15T09:37:07;10.80;99.90
9305;DHT22;4690;52.422;13.486;2023-04-15T09:39:48;10.70;99.90
9305;DHT22;4690;52.422;13.486;2023-04-15T09:42:16;10.80;99.90
9305;DHT22;4690;52.422;13.486;2023-04-15T09:44:48;10.80;99.90
9305;DHT22;4690;52.422;13.486;2023-04-15T09:47:29;10.70;99.90
9305;DHT22;4690;52.422;13.486;2023-04-15T09:49:57;10.70;99.90
9305;DHT22;4690;52.422;13.486;2023-04-15T09:52:24;10.80;99.90
9305;DHT22;4690;52.422;13.486;2023-04-15T09:54:52;10.70;99.90
9305;DHT22;4690;52.422;13.486;2023-04-15T09:57:23;10.80;99.90
9305;DHT22;4690;52.422;13.486;2023-04-15T09:59:50;10.80;99.90
9305;DHT22;4690;52.422;13.486;2023-04-15T10:02:18;10.80;99.90
9305;DHT22;4690;52.422;13.486;2023-04-15T10:04:47;10.80;99.90
9305;DHT22;4690;52.422;13.486;2023-04-15T10:07:14;10.80;99.90
9305;DHT22;4690;52.422;13.486;2023-04-15T10:09:40;10.80;99.90
9305;DHT22;4690;52.422;13.486;2023-04-15T10:12:10;10.90;99.90
9305;DHT22;4690;52.422;13.486;2023-04-15T10:14:37;10.90;99.90
9305;DHT22;4690;52.422;13.486;2023-04-15T10:17:06;10.90;99.90
9305;DHT22;4690;52.422;13.486;2023-04-15T10:19:37;10.90;99.90
9305;DHT22;4690;52.422;13.486;2023-04-15T10:22:03;10.90;99.90
9305;DHT22;4690;52.422;13.486;2023-04-15T10:24:32;10.90;99.90
9305;DHT22;4690;52.422;13.486;2023-04-15T10:26:59;10.90;99.90
9305;DHT22;4690;52.422;13.486;2023-04-15T10:29:25;10.90;99.90
9305;DHT22;4690;52.422;13.486;2023-04-15T10:31:54;10.90;99.90
9305;DHT22;4690;52.422;13.486;2023-04-15T10:34:23;10.90;99.90
9305;DHT22;4690;52.422;13.486;2023-04-15T10:36:49;10.90;99.90
9305;DHT22;4690;52.422;13.486;2023-04-15T10:42:17;10.90;99.90
9305;DHT22;4690;52.422;13.486;2023-04-15T10:44:44;11.00;99.90
9305;DHT22;4690;52.422;13.486;2023-04-15T10:47:15;11.00;99.90
9305;DHT22;4690;52.422;13.486;2023-04-15T10:49:45;11.00;99.90
9305;DHT22;4690;52.422;13.486;2023-04-15T10:52:16;11.10;99.90
9305;DHT22;4690;52.422;13.486;2023-04-15T10:54:47;11.00;99.90
9305;DHT22;4690;52.422;13.486;2023-04-15T10:57:22;11.00;99.90
9305;DHT22;4690;52.422;13.486;2023-04-15T11:05:06;11.00;99.90
9305;DHT22;4690;52.422;13.486;2023-04-15T11:07:34;11.00;99.90
9305;DHT22;4690;52.422;13.486;2023-04-15T11:13:03;11.10;99.90
9305;DHT22;4690;52.422;13.486;2023-04-15T11:15:44;11.00;99.90
9305;DHT22;4690;52.422;13.486;2023-04-15T11:18:14;11.10;99.90
9305;DHT22;4690;52.422;13.486;2023-04-15T11:20:47;11.10;99.90
9305;DHT22;4690;52.422;13.486;2023-04-15T11:23:16;11.00;99.90
9305;DHT22;4690;52.422;13.486;2023-04-15T11:25:43;11.10;99.90
9305;DHT22;4690;52.422;13.486;2023-04-15T11:28:11;11.10;99.90
9305;DHT22;4690;52.422;13.486;2023-04-15T11:30:38;11.10;99.90
9305;DHT22;4690;52.422;13.486;2023-04-15T11:33:06;11.20;99.90
9305;DHT22;4690;52.422;13.486;2023-04-15T11:35:34;11.10;99.90
9305;DHT22;4690;52.422;13.486;2023-04-15T11:38:04;11.10;99.90
9305;DHT22;4690;52.422;13.486;2023-04-15T11:40:33;11.10;99.90
9305;DHT22;4690;52.422;13.486;2023-04-15T11:43:13;11.10;99.90
9305;DHT22;4690;52.422;13.486;2023-04-15T11:45:57;11.10;99.90
9305;DHT22;4690;52.422;13.486;2023-04-15T11:48:32;11.20;99.90
9305;DHT22;4690;52.422;13.486;2023-04-15T11:51:05;11.20;99.90
9305;DHT22;4690;52.422;13.486;2023-04-15T11:53:50;11.20;99.90
9305;DHT22;4690;52.422;13.486;2023-04-15T11:56:18;11.30;99.90
9305;DHT22;4690;52.422;13.486;2023-04-15T11:58:46;11.30;99.90
9305;DHT22;4690;52.422;13.486;2023-04-15T12:01:12;11.30;99.90
9305;DHT22;4690;52.422;13.486;2023-04-15T12:03:39;11.30;99.90
9305;DHT22;4690;52.422;13.486;2023-04-15T12:06:14;11.30;99.90
9305;DHT22;4690;52.422;13.486;2023-04-15T12:08:51;11.30;99.90
9305;DHT22;4690;52.422;13.486;2023-04-15T12:14:04;11.20;99.90
9305;DHT22;4690;52.422;13.486;2023-04-15T12:16:34;11.20;99.90
9305;DHT22;4690;52.422;13.486;2023-04-15T12:19:13;11.30;99.90
9305;DHT22;4690;52.422;13.486;2023-04-15T12:21:43;11.40;99.90
9305;DHT22;4690;52.422;13.486;2023-04-15T12:24:11;11.50;99.90
9305;DHT22;4690;52.422;13.486;2023-04-15T12:26:46;11.40;99.90
9305;DHT22;4690;52.422;13.486;2023-04-15T12:29:15;11.50;99.90
9305;DHT22;4690;52.422;13.486;2023-04-15T12:31:49;11.50;99.90
9305;DHT22;4690;52.422;13.486;2023-04-15T12:34:25;11.50;99.90
9305;DHT22;4690;52.422;13.486;2023-04-15T12:36:55;11.40;99.90
9305;DHT22;4690;52.422;13.486;2023-04-15T12:39:26;11.50;99.90
9305;DHT22;4690;52.422;13.486;2023-04-15T12:41:54;11.60;99.90
9305;DHT22;4690;52.422;13.486;2023-04-15T12:44:22;11.50;99.90
9305;DHT22;4690;52.422;13.486;2023-04-15T12:46:49;11.60;99.90
9305;DHT22;4690;52.422;13.486;2023-04-15T12:49:15;11.50;99.90
9305;DHT22;4690;52.422;13.486;2023-04-15T12:51:44;11.50;99.90
9305;DHT22;4690;52.422;13.486;2023-04-15T12:54:11;11.50;99.90
9305;DHT22;4690;52.422;13.486;2023-04-15T12:56:37;11.60;99.90
9305;DHT22;4690;52.422;13.486;2023-04-15T12:59:03;11.70;99.90
9305;DHT22;4690;52.422;13.486;2023-04-15T13:01:28;11.70;99.90
9305;DHT22;4690;52.422;13.486;2023-04-15T13:03:54;11.70;99.90
9305;DHT22;4690;52.422;13.486;2023-04-15T13:06:20;11.70;99.90
9305;DHT22;4690;52.422;13.486;2023-04-15T13:08:46;11.70;99.90
9305;DHT22;4690;52.422;13.486;2023-04-15T13:11:12;11.70;99.90
9305;DHT22;4690;52.422;13.486;2023-04-15T13:13:38;11.80;99.90
9305;DHT22;4690;52.422;13.486;2023-04-15T13:16:04;11.80;99.90
9305;DHT22;4690;52.422;13.486;2023-04-15T13:18:30;11.80;99.90
9305;DHT22;4690;52.422;13.486;2023-04-15T13:20:56;11.80;99.90
9305;DHT22;4690;52.422;13.486;2023-04-15T13:23:22;11.80;99.90
9305;DHT22;4690;52.422;13.486;2023-04-15T13:25:48;11.80;99.90
9305;DHT22;4690;52.422;13.486;2023-04-15T13:28:13;11.80;99.90
9305;DHT22;4690;52.422;13.486;2023-04-15T13:30:39;11.70;99.90
9305;DHT22;4690;52.422;13.486;2023-04-15T13:33:05;11.80;99.90
9305;DHT22;4690;52.422;13.486;2023-04-15T13:35:31;11.80;99.90
9305;DHT22;4690;52.422;13.486;2023-04-15T13:37:57;11.80;99.90
9305;DHT22;4690;52.422;13.486;2023-04-15T13:40:23;11.80;99.90
9305;DHT22;4690;52.422;13.486;2023-04-15T13:42:50;11.70;99.90
9305;DHT22;4690;52.422;13.486;2023-04-15T13:45:16;11.70;99.90
9305;DHT22;4690;52.422;13.486;2023-04-15T13:47:42;11.70;99.90
9305;DHT22;4690;52.422;13.486;2023-04-15T13:50:08;11.80;99.90
9305;DHT22;4690;52.422;13.486;2023-04-15T13:52:34;11.80;99.90
9305;DHT22;4690;52.422;13.486;2023-04-15T13:55:00;11.80;99.90
9305;DHT22;4690;52.422;13.486;2023-04-15T13:57:25;11.80;99.90
9305;DHT22;4690;52.422;13.486;2023-04-15T13:59:51;11.80;99.90
9305;DHT22;4690;52.422;13.486;2023-04-15T14:02:19;11.80;99.90
9305;DHT22;4690;52.422;13.486;2023-04-15T14:04:45;11.90;99.90
9305;DHT22;4690;52.422;13.486;2023-04-15T14:07:11;11.90;99.90
9305;DHT22;4690;52.422;13.486;2023-04-15T14:09:37;11.80;99.90
9305;DHT22;4690;52.422;13.486;2023-04-15T14:12:03;11.80;99.90
9305;DHT22;4690;52.422;13.486;2023-04-15T14:14:29;11.80;99.90
9305;DHT22;4690;52.422;13.486;2023-04-15T14:16:55;11.90;99.90
9305;DHT22;4690;52.422;13.486;2023-04-15T14:19:22;11.90;99.90
9305;DHT22;4690;52.422;13.486;2023-04-15T14:21:48;11.80;99.90
9305;DHT22;4690;52.422;13.486;2023-04-15T14:24:14;11.80;99.90
9305;DHT22;4690;52.422;13.486;2023-04-15T14:26:41;11.80;99.90
9305;DHT22;4690;52.422;13.486;2023-04-15T14:29:08;11.80;99.90
9305;DHT22;4690;52.422;13.486;2023-04-15T14:31:34;11.90;99.90
9305;DHT22;4690;52.422;13.486;2023-04-15T14:33:59;11.80;99.90
9305;DHT22;4690;52.422;13.486;2023-04-15T14:36:25;11.90;99.90
9305;DHT22;4690;52.422;13.486;2023-04-15T14:38:52;11.80;99.90
9305;DHT22;4690;52.422;13.486;2023-04-15T14:41:17;11.80;99.90
9305;DHT22;4690;52.422;13.486;2023-04-15T14:43:43;11.80;99.90
9305;DHT22;4690;52.422;13.486;2023-04-15T14:46:09;11.70;99.90
9305;DHT22;4690;52.422;13.486;2023-04-15T14:48:35;11.70;99.90
9305;DHT22;4690;52.422;13.486;2023-04-15T14:51:01;11.70;99.90
9305;DHT22;4690;52.422;13.486;2023-04-15T14:53:27;11.70;99.90
9305;DHT22;4690;52.422;13.486;2023-04-15T14:55:53;11.80;99.90
9305;DHT22;4690;52.422;13.486;2023-04-15T14:58:19;11.80;99.90
9305;DHT22;4690;52.422;13.486;2023-04-15T15:00:44;11.80;99.90
9305;DHT22;4690;52.422;13.486;2023-04-15T15:03:11;11.90;99.90
9305;DHT22;4690;52.422;13.486;2023-04-15T15:05:41;11.90;99.90
9305;DHT22;4690;52.422;13.486;2023-04-15T15:08:08;11.90;99.90
9305;DHT22;4690;52.422;13.486;2023-04-15T15:10:35;12.00;99.90
9305;DHT22;4690;52.422;13.486;2023-04-15T15:13:05;11.90;99.90
9305;DHT22;4690;52.422;13.486;2023-04-15T15:15:33;12.00;99.90
9305;DHT22;4690;52.422;13.486;2023-04-15T15:18:00;12.00;99.90
9305;DHT22;4690;52.422;13.486;2023-04-15T15:20:26;11.90;99.90
9305;DHT22;4690;52.422;13.486;2023-04-15T15:22:52;11.90;99.90
9305;DHT22;4690;52.422;13.486;2023-04-15T15:25:18;11.90;99.90
9305;DHT22;4690;52.422;13.486;2023-04-15T15:27:44;11.80;99.90
9305;DHT22;4690;52.422;13.486;2023-04-15T15:30:10;11.80;99.90
9305;DHT22;4690;52.422;13.486;2023-04-15T15:32:40;11.80;99.90
9305;DHT22;4690;52.422;13.486;2023-04-15T15:35:07;11.80;99.90
9305;DHT22;4690;52.422;13.486;2023-04-15T15:37:34;11.80;99.90
9305;DHT22;4690;52.422;13.486;2023-04-15T15:40:03;11.80;99.90
9305;DHT22;4690;52.422;13.486;2023-04-15T15:42:33;11.80;99.90
9305;DHT22;4690;52.422;13.486;2023-04-15T15:44:59;11.80;99.90
9305;DHT22;4690;52.422;13.486;2023-04-15T15:47:25;11.80;99.90
9305;DHT22;4690;52.422;13.486;2023-04-15T15:49:52;11.80;99.90
9305;DHT22;4690;52.422;13.486;2023-04-15T15:52:19;11.90;99.90
9305;DHT22;4690;52.422;13.486;2023-04-15T15:54:45;11.90;99.90
9305;DHT22;4690;52.422;13.486;2023-04-15T15:57:10;11.90;99.90
9305;DHT22;4690;52.422;13.486;2023-04-15T15:59:36;11.90;99.90
9305;DHT22;4690;52.422;13.486;2023-04-15T16:02:09;11.80;99.90
9305;DHT22;4690;52.422;13.486;2023-04-15T16:04:37;11.70;99.90
9305;DHT22;4690;52.422;13.486;2023-04-15T16:07:03;11.70;99.90
9305;DHT22;4690;52.422;13.486;2023-04-15T16:09:30;11.80;99.90